Time;durP1;ratioP1;P1;durP2;ratioP2;P2;SDS_P1;SDS_P2;PMS_P1;PMS_P2;Temp;Humidity;BMP_temperature;BMP_pressure;BME280_temperature;BME280_humidity;BME280_pressure;Samples;Min_cycle;Max_cycle;Signal;HPM_P1;HPM_P2
2020/12/09 00:01:20;;;;;;;50.10;27.40;;;7.50;72.00;;;;;;5013826;28;20030;-66
2020/12/09 00:03:46;;;;;;;49.47;25.70;;;7.40;71.90;;;;;;5018620;28;20081;-66
2020/12/09 00:06:12;;;;;;;48.60;25.10;;;7.40;71.90;;;;;;5015974;28;20045;-66
2020/12/09 00:08:37;;;;;;;46.20;23.77;;;7.30;72.00;;;;;;5014124;28;20809;-66
2020/12/09 00:11:04;;;;;;;54.87;28.77;;;7.30;72.00;;;;;;5019747;28;20037;-66
2020/12/09 00:13:30;;;;;;;55.53;32.15;;;7.30;72.10;;;;;;5020538;28;20371;-66
2020/12/09 00:15:55;;;;;;;49.10;25.50;;;7.30;72.10;;;;;;5018543;28;20049;-66
2020/12/09 00:18:21;;;;;;;39.10;22.37;;;7.20;72.00;;;;;;5030220;28;20432;-66
2020/12/09 00:20:47;;;;;;;37.03;21.30;;;7.20;71.90;;;;;;5023620;28;20048;-66
2020/12/09 00:23:13;;;;;;;34.72;21.15;;;7.20;71.90;;;;;;5019827;28;20025;-66
2020/12/09 00:25:39;;;;;;;31.13;17.87;;;7.20;71.90;;;;;;5016229;28;20060;-66
2020/12/09 00:28:04;;;;;;;30.40;18.30;;;7.10;71.80;;;;;;5019541;28;20041;-66
2020/12/09 00:30:31;;;;;;;27.87;16.10;;;7.10;71.80;;;;;;5022922;28;20095;-66
2020/12/09 00:32:56;;;;;;;29.97;17.63;;;7.10;71.90;;;;;;5022094;28;20041;-66
2020/12/09 00:35:22;;;;;;;24.00;14.53;;;7.10;72.00;;;;;;5012295;28;20414;-65
2020/12/09 00:37:48;;;;;;;22.65;13.25;;;7.10;72.00;;;;;;4994835;28;20191;-66
2020/12/09 00:40:13;;;;;;;22.03;14.63;;;7.00;72.00;;;;;;5023346;28;20067;-66
2020/12/09 00:42:39;;;;;;;21.60;12.13;;;7.00;72.00;;;;;;5018152;28;20033;-66
2020/12/09 00:45:05;;;;;;;19.60;12.47;;;7.00;72.00;;;;;;5020292;28;20038;-66
2020/12/09 00:47:31;;;;;;;20.63;13.47;;;7.00;72.00;;;;;;5017074;28;20030;-66
2020/12/09 00:52:38;;;;;;;22.23;13.27;;;6.90;72.00;;;;;;5011508;28;20034;-67
2020/12/09 00:55:04;;;;;;;21.57;12.17;;;6.90;72.00;;;;;;5012755;28;20045;-66
2020/12/09 00:57:30;;;;;;;22.43;13.30;;;6.80;71.80;;;;;;5023145;28;20144;-66
2020/12/09 00:59:55;;;;;;;19.93;12.53;;;6.80;71.70;;;;;;5020463;28;20203;-66
2020/12/09 01:02:21;;;;;;;20.03;12.27;;;6.80;71.90;;;;;;5022301;28;20034;-66
2020/12/09 01:04:50;;;;;;;20.23;13.20;;;6.80;71.80;;;;;;5021547;28;20047;-66
2020/12/09 01:07:19;;;;;;;21.00;12.00;;;6.70;71.70;;;;;;5023411;28;20029;-66
2020/12/09 01:09:46;;;;;;;20.43;12.40;;;6.70;71.50;;;;;;5015240;28;20037;-66
2020/12/09 01:12:12;;;;;;;21.23;13.20;;;6.60;71.50;;;;;;5010672;28;20057;-67
2020/12/09 01:14:38;;;;;;;19.40;12.87;;;6.60;71.60;;;;;;5020662;28;20037;-66
2020/12/09 01:17:04;;;;;;;19.47;11.83;;;6.50;71.60;;;;;;5029514;28;20021;-66
2020/12/09 01:19:29;;;;;;;18.27;11.03;;;6.50;71.70;;;;;;5013006;28;20110;-66
2020/12/09 01:21:55;;;;;;;18.30;11.83;;;6.50;71.80;;;;;;5019194;28;20318;-66
2020/12/09 01:24:21;;;;;;;19.93;11.37;;;6.50;71.70;;;;;;5020600;28;20073;-66
2020/12/09 01:26:49;;;;;;;17.77;10.97;;;6.40;71.50;;;;;;5022303;28;20041;-66
2020/12/09 01:29:15;;;;;;;18.07;11.83;;;6.40;71.40;;;;;;5025402;28;20042;-66
2020/12/09 01:31:41;;;;;;;19.30;11.53;;;6.40;71.40;;;;;;5020311;28;20031;-66
2020/12/09 01:34:07;;;;;;;20.10;11.83;;;6.40;71.40;;;;;;5008021;28;20529;-66
2020/12/09 01:36:33;;;;;;;20.63;13.13;;;6.30;71.30;;;;;;5019771;28;20026;-66
2020/12/09 01:38:58;;;;;;;18.30;10.43;;;6.30;71.40;;;;;;5027481;28;20041;-66
2020/12/09 01:41:25;;;;;;;18.73;11.80;;;6.30;71.60;;;;;;5016587;28;20038;-66
2020/12/09 01:43:52;;;;;;;17.90;11.03;;;6.30;71.60;;;;;;5012860;28;20053;-66
2020/12/09 01:46:26;;;;;;;20.47;12.77;;;6.30;71.70;;;;;;5010815;28;20080;-66
2020/12/09 01:48:54;;;;;;;18.63;10.73;;;6.30;71.60;;;;;;5011962;28;20033;-66
2020/12/09 01:51:23;;;;;;;20.60;13.27;;;6.30;71.70;;;;;;5022979;28;20050;-66
2020/12/09 01:53:51;;;;;;;20.27;12.87;;;6.30;71.80;;;;;;5010235;28;20025;-66
2020/12/09 01:56:17;;;;;;;20.63;12.47;;;6.40;72.00;;;;;;5028879;28;20028;-66
2020/12/09 01:58:42;;;;;;;20.93;12.00;;;6.30;72.00;;;;;;5020470;28;20030;-66
2020/12/09 02:01:08;;;;;;;20.90;11.73;;;6.40;72.00;;;;;;5013713;28;20399;-66
2020/12/09 02:03:34;;;;;;;20.00;11.93;;;6.40;72.00;;;;;;5015689;28;20037;-66
2020/12/09 02:05:59;;;;;;;21.27;13.20;;;6.40;72.00;;;;;;5027173;28;20065;-66
2020/12/09 02:08:25;;;;;;;20.63;12.57;;;6.40;72.00;;;;;;5017222;28;20041;-66
2020/12/09 02:11:02;;;;;;;19.77;13.27;;;6.40;72.00;;;;;;5019538;28;20088;-66
2020/12/09 02:13:29;;;;;;;21.57;13.97;;;6.40;71.90;;;;;;5024041;28;20108;-66
2020/12/09 02:15:57;;;;;;;19.97;12.20;;;6.40;71.80;;;;;;5027220;28;20037;-66
2020/12/09 02:18:22;;;;;;;21.97;12.93;;;6.40;71.90;;;;;;5025933;28;20029;-66
2020/12/09 02:20:48;;;;;;;20.83;11.93;;;6.30;71.80;;;;;;5024322;28;20064;-66
2020/12/09 02:23:14;;;;;;;19.40;11.87;;;6.30;71.80;;;;;;5020835;28;20440;-66
2020/12/09 02:25:39;;;;;;;21.17;12.53;;;6.30;71.60;;;;;;5022059;28;20141;-66
2020/12/09 02:28:05;;;;;;;20.90;12.80;;;6.30;71.50;;;;;;5016754;28;22028;-66
2020/12/09 02:30:31;;;;;;;21.20;12.50;;;6.20;71.40;;;;;;5020155;28;20470;-66
2020/12/09 02:32:56;;;;;;;20.63;12.07;;;6.20;71.40;;;;;;5029183;28;20044;-66
2020/12/09 02:35:22;;;;;;;19.13;11.47;;;6.20;71.10;;;;;;5025148;28;20613;-66
2020/12/09 02:37:48;;;;;;;18.97;11.73;;;6.10;70.90;;;;;;5028974;28;20120;-65
2020/12/09 02:40:13;;;;;;;20.67;13.43;;;6.10;70.90;;;;;;5020198;28;20456;-66
2020/12/09 02:42:39;;;;;;;22.87;12.40;;;6.00;70.90;;;;;;5024036;28;20030;-66
2020/12/09 02:45:05;;;;;;;19.77;12.23;;;6.00;71.00;;;;;;5017837;28;20072;-66
2020/12/09 02:47:31;;;;;;;18.40;12.63;;;5.90;71.00;;;;;;5014446;28;20491;-66
2020/12/09 02:49:56;;;;;;;19.47;12.53;;;5.90;71.10;;;;;;5023936;28;20449;-66
2020/12/09 02:52:22;;;;;;;18.97;10.83;;;5.90;71.20;;;;;;5025158;28;20034;-66
2020/12/09 02:54:48;;;;;;;24.60;13.70;;;5.90;71.30;;;;;;5021704;28;20124;-66
2020/12/09 02:57:13;;;;;;;21.40;13.07;;;5.90;71.30;;;;;;5029604;28;20030;-66
2020/12/09 02:59:39;;;;;;;18.77;10.77;;;5.90;71.40;;;;;;5022227;28;20025;-66
2020/12/09 03:02:04;;;;;;;22.90;13.00;;;5.90;71.50;;;;;;5018917;28;20065;-66
2020/12/09 03:04:30;;;;;;;20.40;12.10;;;6.00;71.60;;;;;;5028479;28;20048;-66
2020/12/09 03:06:56;;;;;;;27.33;14.83;;;6.00;71.60;;;;;;5020006;28;20229;-66
2020/12/09 03:09:21;;;;;;;22.93;13.53;;;6.10;71.60;;;;;;5024242;28;20034;-66
2020/12/09 03:11:47;;;;;;;23.27;14.13;;;6.10;71.60;;;;;;5026492;28;20037;-66
2020/12/09 03:14:12;;;;;;;23.23;14.57;;;6.10;71.60;;;;;;5028042;28;20040;-66
2020/12/09 03:16:38;;;;;;;22.10;13.63;;;6.20;71.70;;;;;;5024625;28;20034;-66
2020/12/09 03:19:04;;;;;;;24.13;13.83;;;6.20;71.60;;;;;;5017354;28;20034;-66
2020/12/09 03:21:32;;;;;;;21.57;13.03;;;6.20;71.60;;;;;;5017834;28;20038;-66
2020/12/09 03:23:58;;;;;;;24.13;13.67;;;6.20;71.80;;;;;;5011306;28;20073;-66
2020/12/09 03:26:26;;;;;;;25.73;14.77;;;6.20;71.90;;;;;;5015369;28;20033;-66
2020/12/09 03:28:53;;;;;;;25.30;14.17;;;6.20;72.00;;;;;;5016781;28;20033;-66
2020/12/09 03:31:19;;;;;;;27.30;14.90;;;6.10;72.20;;;;;;5025491;28;20479;-66
2020/12/09 03:33:45;;;;;;;27.63;17.13;;;6.00;72.50;;;;;;5024969;28;20045;-66
2020/12/09 03:36:10;;;;;;;35.83;15.10;;;6.10;72.80;;;;;;5025774;28;20025;-66
2020/12/09 03:38:36;;;;;;;27.40;15.27;;;5.90;72.90;;;;;;5028670;28;20041;-65
2020/12/09 03:41:02;;;;;;;26.03;15.50;;;6.10;73.10;;;;;;5017499;28;20416;-66
2020/12/09 03:43:27;;;;;;;27.53;15.40;;;6.20;73.20;;;;;;5013543;28;20036;-66
2020/12/09 03:45:53;;;;;;;27.00;15.30;;;6.20;73.00;;;;;;5014613;28;20117;-66
2020/12/09 03:48:19;;;;;;;27.20;16.43;;;6.30;73.00;;;;;;5016026;28;20431;-66
2020/12/09 03:50:44;;;;;;;25.33;14.70;;;6.40;73.00;;;;;;5023354;28;20044;-66
2020/12/09 03:53:10;;;;;;;29.00;17.67;;;6.40;72.80;;;;;;5028256;28;20444;-66
2020/12/09 03:55:36;;;;;;;24.03;14.70;;;6.50;72.80;;;;;;5028808;28;20029;-65
2020/12/09 03:58:01;;;;;;;24.90;13.37;;;6.60;72.80;;;;;;5027549;28;20033;-66
2020/12/09 04:00:28;;;;;;;27.10;16.30;;;6.60;72.80;;;;;;5008308;28;20030;-66
2020/12/09 04:02:53;;;;;;;23.23;14.67;;;6.70;72.90;;;;;;5014226;28;20116;-66
2020/12/09 04:05:19;;;;;;;26.70;15.43;;;6.70;72.90;;;;;;5024682;28;20104;-66
2020/12/09 04:07:44;;;;;;;26.00;15.27;;;6.80;72.80;;;;;;4997044;28;20064;-66
2020/12/09 04:10:10;;;;;;;28.47;16.73;;;6.80;72.80;;;;;;5025582;28;20029;-66
2020/12/09 04:12:36;;;;;;;27.53;15.67;;;6.80;72.80;;;;;;5022710;28;20072;-66
2020/12/09 04:15:02;;;;;;;28.73;15.47;;;6.90;73.00;;;;;;5011551;28;20051;-66
2020/12/09 04:17:28;;;;;;;28.43;16.50;;;6.90;73.00;;;;;;5022560;28;20037;-66
2020/12/09 04:19:53;;;;;;;45.03;21.50;;;6.90;73.30;;;;;;5027287;28;20171;-66
2020/12/09 04:22:19;;;;;;;40.60;22.93;;;6.90;74.10;;;;;;5023064;28;20036;-66
2020/12/09 04:24:45;;;;;;;48.70;25.23;;;6.90;74.30;;;;;;5011199;28;20068;-65
2020/12/09 04:27:10;;;;;;;50.67;25.60;;;7.00;74.80;;;;;;5022226;28;20108;-65
2020/12/09 04:29:36;;;;;;;50.47;23.70;;;7.00;74.90;;;;;;5023364;28;20097;-65
2020/12/09 04:32:02;;;;;;;63.40;26.13;;;7.00;75.20;;;;;;5023499;28;20172;-65
2020/12/09 04:34:28;;;;;;;46.37;26.20;;;7.10;75.40;;;;;;5026587;28;20576;-65
2020/12/09 04:36:54;;;;;;;50.90;26.07;;;7.10;75.50;;;;;;5019990;28;20057;-65
2020/12/09 04:39:20;;;;;;;54.70;26.33;;;7.10;76.10;;;;;;5021689;28;20475;-65
2020/12/09 04:41:46;;;;;;;46.57;24.80;;;7.10;76.10;;;;;;5013594;28;20036;-65
2020/12/09 04:44:12;;;;;;;46.43;24.53;;;7.10;76.00;;;;;;5026443;28;20142;-65
2020/12/09 04:46:44;;;;;;;50.70;27.53;;;7.20;75.90;;;;;;5014195;28;20491;-66
2020/12/09 04:49:17;;;;;;;51.63;27.13;;;7.20;75.80;;;;;;5021742;28;20029;-65
2020/12/09 04:51:58;;;;;;;;;;;7.20;76.40;;;;;;5016321;28;20037;-65
2020/12/09 04:54:35;;;;;;;47.23;25.13;;;7.30;75.80;;;;;;5011673;28;20040;-65
2020/12/09 04:57:13;;;;;;;48.83;26.23;;;7.30;75.80;;;;;;5025451;28;20083;-65
2020/12/09 04:59:42;;;;;;;51.97;28.42;;;7.30;75.70;;;;;;5027555;28;20095;-65
2020/12/09 05:02:10;;;;;;;52.43;29.53;;;7.40;75.70;;;;;;5026356;28;20573;-66
2020/12/09 05:04:37;;;;;;;50.80;27.27;;;7.40;75.60;;;;;;5017688;28;20047;-65
2020/12/09 05:07:10;;;;;;;57.53;28.57;;;7.30;75.80;;;;;;5011813;28;20041;-66
2020/12/09 05:09:46;;;;;;;50.95;27.67;;;7.20;76.10;;;;;;5017687;28;20068;-65
2020/12/09 05:12:17;;;;;;;53.30;28.63;;;7.20;76.30;;;;;;5027199;28;20025;-66
2020/12/09 05:14:47;;;;;;;48.87;27.57;;;7.20;76.50;;;;;;5011296;28;20033;-66
2020/12/09 05:17:20;;;;;;;52.73;28.97;;;7.10;76.70;;;;;;5014624;28;20135;-66
2020/12/09 05:19:47;;;;;;;51.08;28.73;;;7.10;76.90;;;;;;5021787;28;20140;-65
2020/12/09 05:22:21;;;;;;;49.42;26.85;;;7.20;76.70;;;;;;5018702;28;20432;-65
2020/12/09 05:24:46;;;;;;;52.25;28.10;;;7.30;76.30;;;;;;5018950;28;20116;-65
2020/12/09 05:27:13;;;;;;;54.07;28.57;;;7.30;75.90;;;;;;5013553;28;20121;-66
2020/12/09 05:29:57;;;;;;;47.90;27.50;;;7.40;75.70;;;;;;5008965;28;20122;-65
2020/12/09 05:32:23;;;;;;;54.85;30.67;;;7.50;75.40;;;;;;5010495;28;20068;-65
2020/12/09 05:34:48;;;;;;;58.30;30.25;;;7.50;75.20;;;;;;5005854;28;20065;-65
2020/12/09 05:37:14;;;;;;;50.70;30.73;;;7.50;75.00;;;;;;5026654;28;20546;-66
2020/12/09 05:39:52;;;;;;;56.27;31.20;;;7.50;75.00;;;;;;5026994;28;20036;-65
2020/12/09 05:42:19;;;;;;;52.05;28.02;;;7.50;74.90;;;;;;5020131;28;20045;-65
2020/12/09 05:44:46;;;;;;;55.47;30.03;;;7.50;74.80;;;;;;5017614;28;20045;-65
2020/12/09 05:47:12;;;;;;;60.07;32.17;;;7.50;74.70;;;;;;5011805;28;20029;-65
2020/12/09 05:49:40;;;;;;;52.33;30.20;;;7.50;74.70;;;;;;5023604;28;20033;-65
2020/12/09 05:52:19;;;;;;;58.10;31.57;;;7.60;74.40;;;;;;5018686;28;20036;-65
2020/12/09 05:54:50;;;;;;;52.10;30.27;;;7.50;74.40;;;;;;5027015;28;20083;-66
2020/12/09 05:57:18;;;;;;;58.33;32.20;;;7.50;74.40;;;;;;5015468;28;20367;-67
2020/12/09 05:59:45;;;;;;;56.50;30.40;;;7.40;74.60;;;;;;5023271;28;20041;-66
2020/12/09 06:02:18;;;;;;;60.63;34.33;;;7.30;74.70;;;;;;5028344;28;20033;-66
2020/12/09 06:04:59;;;;;;;54.83;31.23;;;7.20;75.10;;;;;;5036763;28;20044;-66
2020/12/09 06:07:27;;;;;;;63.30;32.17;;;7.30;75.20;;;;;;5014015;28;20030;-66
2020/12/09 06:10:19;;;;;;;62.50;33.13;;;7.30;74.90;;;;;;5012874;28;20041;-66
2020/12/09 06:13:01;;;;;;;53.37;30.00;;;7.30;74.70;;;;;;5029332;28;20068;-66
2020/12/09 06:15:29;;;;;;;58.63;30.30;;;7.40;74.70;;;;;;5030173;28;20060;-66
2020/12/09 06:18:08;;;;;;;56.27;29.43;;;7.40;74.60;;;;;;5022744;28;20479;-66
2020/12/09 06:20:35;;;;;;;52.53;28.33;;;7.40;74.60;;;;;;5025513;28;20025;-66
2020/12/09 06:23:12;;;;;;;59.93;32.43;;;7.40;74.40;;;;;;5017081;28;20026;-64
2020/12/09 06:25:44;;;;;;;61.40;32.35;;;7.50;74.30;;;;;;5023892;28;20061;-64
2020/12/09 06:28:13;;;;;;;53.40;31.10;;;7.50;74.10;;;;;;5015107;28;20037;-64
2020/12/09 06:30:39;;;;;;;54.10;28.83;;;7.50;74.20;;;;;;5013398;28;20441;-64
2020/12/09 06:33:05;;;;;;;55.97;30.37;;;7.50;74.30;;;;;;4996436;28;20041;-64
2020/12/09 06:35:31;;;;;;;53.33;29.83;;;7.50;74.10;;;;;;5026648;28;20130;-64
2020/12/09 06:38:09;;;;;;;56.90;29.90;;;7.50;74.10;;;;;;5013825;28;20117;-64
2020/12/09 06:40:35;;;;;;;58.67;30.13;;;7.50;74.10;;;;;;5018384;28;20029;-64
2020/12/09 06:43:13;;;;;;;59.13;30.57;;;7.50;74.00;;;;;;5027374;28;20041;-64
2020/12/09 06:45:46;;;;;;;57.10;30.87;;;7.60;74.10;;;;;;5023071;28;20062;-64
2020/12/09 06:48:12;;;;;;;54.73;31.50;;;7.60;74.10;;;;;;5019467;28;20440;-64
2020/12/09 06:50:38;;;;;;;52.80;29.47;;;7.60;73.90;;;;;;5027678;28;20116;-64
2020/12/09 06:53:14;;;;;;;62.20;32.00;;;7.60;73.80;;;;;;5021209;28;20034;-64
2020/12/09 06:55:40;;;;;;;61.85;32.28;;;7.60;73.70;;;;;;5023063;28;20154;-65
2020/12/09 06:58:26;;;;;;;72.55;34.83;;;7.60;73.80;;;;;;5015593;28;20137;-65
2020/12/09 07:01:03;;;;;;;70.53;33.73;;;7.50;73.70;;;;;;5014419;28;20471;-65
2020/12/09 07:03:30;;;;;;;62.90;34.65;;;7.40;73.80;;;;;;5016676;28;20030;-64
2020/12/09 07:05:57;;;;;;;62.57;34.43;;;7.50;74.10;;;;;;5016650;28;20133;-65
2020/12/09 07:08:23;;;;;;;64.43;33.57;;;7.50;74.10;;;;;;5015679;28;20033;-65
2020/12/09 07:10:49;;;;;;;68.82;32.90;;;7.50;74.10;;;;;;5013500;28;20125;-65
2020/12/09 07:13:20;;;;;;;66.70;31.37;;;7.40;74.10;;;;;;5016754;28;20097;-65
2020/12/09 07:15:53;;;;;;;75.53;36.80;;;7.40;74.10;;;;;;5013670;28;20041;-65
2020/12/09 07:18:19;;;;;;;75.00;36.40;;;7.50;74.20;;;;;;5024760;28;20049;-65
2020/12/09 07:20:48;;;;;;;71.07;36.40;;;7.40;74.30;;;;;;5012762;28;20041;-66
2020/12/09 07:23:14;;;;;;;75.17;38.10;;;7.40;74.30;;;;;;5023266;28;20360;-65
2020/12/09 07:25:40;;;;;;;75.15;37.40;;;7.50;74.30;;;;;;5025808;28;20053;-65
2020/12/09 07:28:06;;;;;;;72.10;34.57;;;7.50;74.20;;;;;;5019016;28;20052;-64
2020/12/09 07:30:33;;;;;;;88.97;40.47;;;7.50;74.20;;;;;;5014591;28;20507;-65
2020/12/09 07:32:59;;;;;;;92.43;42.47;;;7.40;74.20;;;;;;5022870;28;20026;-65
2020/12/09 07:35:26;;;;;;;94.20;41.07;;;7.50;74.30;;;;;;5022298;28;20407;-64
2020/12/09 07:37:56;;;;;;;115.17;48.93;;;7.40;74.30;;;;;;5023757;28;20032;-64
2020/12/09 07:40:28;;;;;;;94.35;42.95;;;7.50;74.30;;;;;;5017772;28;20490;-64
2020/12/09 07:42:58;;;;;;;83.30;40.78;;;7.50;74.30;;;;;;5020410;28;20036;-64
2020/12/09 07:45:24;;;;;;;72.10;34.30;;;7.50;74.40;;;;;;5019543;28;20040;-64
2020/12/09 07:47:49;;;;;;;72.37;36.20;;;7.40;74.50;;;;;;5030965;28;20037;-64
2020/12/09 07:50:15;;;;;;;70.68;33.25;;;7.40;74.70;;;;;;5001260;28;20431;-63
2020/12/09 07:52:41;;;;;;;65.32;32.33;;;7.40;74.80;;;;;;5018731;28;20034;-64
2020/12/09 07:55:18;;;;;;;75.43;35.90;;;7.40;74.60;;;;;;5021826;28;20471;-64
2020/12/09 07:57:44;;;;;;;73.63;34.67;;;7.30;74.40;;;;;;5028207;28;20044;-65
2020/12/09 08:00:12;;;;;;;91.23;32.53;;;7.30;74.00;;;;;;5018743;28;20103;-64
2020/12/09 08:02:39;;;;;;;65.73;29.70;;;7.10;74.30;;;;;;5012733;28;20108;-65
2020/12/09 08:05:17;;;;;;;81.43;31.43;;;7.00;74.30;;;;;;5023437;28;20041;-65
2020/12/09 08:07:47;;;;;;;62.77;29.23;;;7.00;74.10;;;;;;5040160;28;20021;-64
2020/12/09 08:10:14;;;;;;;69.70;30.00;;;7.00;74.10;;;;;;5018454;28;20108;-64
2020/12/09 08:12:41;;;;;;;76.77;31.67;;;7.00;73.90;;;;;;5016971;28;20051;-64
2020/12/09 08:15:08;;;;;;;62.63;28.47;;;7.00;73.60;;;;;;5015591;28;20051;-65
2020/12/09 08:17:34;;;;;;;64.47;29.17;;;6.90;73.80;;;;;;5019782;28;20559;-64
2020/12/09 08:20:07;;;;;;;59.03;27.80;;;6.80;73.80;;;;;;5014768;28;20053;-64
2020/12/09 08:22:51;;;;;;;62.92;28.90;;;6.60;73.90;;;;;;5014188;28;20030;-64
2020/12/09 08:25:17;;;;;;;56.73;26.57;;;6.60;74.20;;;;;;5020667;28;20056;-64
2020/12/09 08:27:44;;;;;;;56.73;25.47;;;6.50;74.20;;;;;;5027900;28;20041;-64
2020/12/09 08:30:31;;;;;;;55.60;27.60;;;6.50;74.00;;;;;;5020387;28;20514;-64
2020/12/09 08:33:11;;;;;;;52.07;26.23;;;6.50;74.00;;;;;;5023952;28;20120;-65
2020/12/09 08:36:00;;;;;;;53.10;28.00;;;6.50;73.70;;;;;;5024901;28;20100;-65
2020/12/09 08:38:52;;;;;;;49.03;26.33;;;6.40;72.50;;;;;;5024794;28;20730;-65
2020/12/09 08:41:25;;;;;;;51.00;24.73;;;6.40;72.80;;;;;;5014101;28;20045;-65
2020/12/09 08:43:55;;;;;;;51.50;26.13;;;6.30;72.50;;;;;;5014534;28;20032;-65
2020/12/09 08:46:20;;;;;;;51.60;24.10;;;6.20;72.60;;;;;;5021254;28;20067;-65
2020/12/09 08:48:46;;;;;;;61.50;26.10;;;6.20;73.10;;;;;;5014448;28;20452;-65
2020/12/09 08:51:12;;;;;;;51.70;25.97;;;6.20;73.20;;;;;;5015789;28;20120;-64
2020/12/09 08:53:37;;;;;;;51.97;26.60;;;6.20;73.20;;;;;;5007762;28;20030;-65
2020/12/09 08:56:03;;;;;;;51.03;25.67;;;6.20;73.30;;;;;;5024998;28;20056;-65
2020/12/09 08:58:29;;;;;;;53.07;26.90;;;6.30;73.20;;;;;;5013828;28;20041;-65
2020/12/09 09:00:54;;;;;;;49.87;24.80;;;6.30;73.20;;;;;;5022183;28;20057;-65
2020/12/09 09:03:23;;;;;;;55.33;26.43;;;6.30;73.10;;;;;;5031378;28;20083;-65
2020/12/09 09:05:53;;;;;;;63.80;30.83;;;6.30;72.60;;;;;;5036835;28;20037;-65
2020/12/09 09:08:19;;;;;;;59.43;27.17;;;6.20;73.00;;;;;;5027723;28;20029;-65
2020/12/09 09:10:44;;;;;;;68.90;29.43;;;6.20;73.20;;;;;;5021731;28;20092;-64
2020/12/09 09:13:11;;;;;;;51.27;27.10;;;6.20;73.20;;;;;;5014420;28;20025;-65
2020/12/09 09:15:38;;;;;;;82.80;30.17;;;6.20;73.50;;;;;;5024662;28;20034;-64
2020/12/09 09:18:05;;;;;;;51.43;26.27;;;6.20;73.40;;;;;;5026100;28;20107;-65
2020/12/09 09:20:32;;;;;;;56.83;28.33;;;6.20;73.30;;;;;;5022569;28;20026;-64
2020/12/09 09:22:59;;;;;;;58.60;29.17;;;6.20;73.20;;;;;;5028259;28;20108;-64
2020/12/09 09:25:24;;;;;;;60.77;29.30;;;6.20;73.40;;;;;;5008372;28;20049;-65
2020/12/09 09:27:51;;;;;;;57.07;28.40;;;6.20;73.30;;;;;;5023944;28;20037;-65
2020/12/09 09:30:17;;;;;;;62.07;27.40;;;6.20;73.20;;;;;;5028525;28;20037;-65
2020/12/09 09:32:43;;;;;;;67.80;30.50;;;6.20;73.20;;;;;;5015772;28;20459;-64
2020/12/09 09:35:09;;;;;;;63.60;31.40;;;6.20;73.10;;;;;;5023609;28;20034;-65
2020/12/09 09:37:34;;;;;;;56.20;28.10;;;6.10;73.30;;;;;;5019054;28;20092;-64
2020/12/09 09:40:00;;;;;;;74.53;30.80;;;6.10;73.20;;;;;;5028751;28;20447;-65
2020/12/09 09:42:26;;;;;;;58.90;28.83;;;6.10;73.00;;;;;;5025637;28;20033;-65
2020/12/09 09:44:52;;;;;;;49.23;25.97;;;6.00;72.90;;;;;;5017145;28;20042;-65
2020/12/09 09:47:18;;;;;;;52.87;29.13;;;5.90;73.50;;;;;;5002626;28;20037;-65
2020/12/09 09:49:44;;;;;;;53.10;26.73;;;5.90;74.10;;;;;;5019545;28;20069;-64
2020/12/09 09:52:09;;;;;;;48.53;27.90;;;5.90;73.50;;;;;;5013173;28;20029;-64
2020/12/09 09:54:35;;;;;;;47.83;25.83;;;5.90;73.60;;;;;;5010502;28;20487;-64
2020/12/09 09:57:01;;;;;;;50.93;28.47;;;5.80;73.80;;;;;;5016307;28;20049;-65
2020/12/09 09:59:26;;;;;;;53.00;27.53;;;5.90;73.90;;;;;;5016005;28;20033;-64
2020/12/09 10:01:53;;;;;;;53.33;26.37;;;5.90;74.00;;;;;;5017617;28;20029;-65
2020/12/09 10:04:22;;;;;;;59.00;29.67;;;6.00;74.00;;;;;;5018379;28;20052;-64
2020/12/09 10:06:50;;;;;;;52.90;27.47;;;6.00;73.80;;;;;;5016712;28;20471;-64
2020/12/09 10:09:17;;;;;;;49.77;25.93;;;6.00;73.70;;;;;;5012840;28;20030;-65
2020/12/09 10:11:43;;;;;;;53.77;28.97;;;6.10;73.20;;;;;;5013477;28;20391;-65
2020/12/09 10:14:09;;;;;;;76.90;28.70;;;6.00;73.20;;;;;;5026431;28;20053;-64
2020/12/09 10:16:36;;;;;;;50.70;27.07;;;5.90;73.20;;;;;;5022636;28;20034;-64
2020/12/09 10:19:03;;;;;;;50.70;26.87;;;5.90;73.10;;;;;;4994707;28;20049;-64
2020/12/09 10:21:31;;;;;;;53.67;29.13;;;5.90;73.30;;;;;;5020835;28;20042;-65
2020/12/09 10:23:58;;;;;;;67.23;30.57;;;5.80;73.30;;;;;;5012657;28;20022;-65
2020/12/09 10:26:39;;;;;;;62.03;29.97;;;5.60;73.80;;;;;;5007433;28;20060;-64
2020/12/09 10:29:09;;;;;;;51.73;28.60;;;5.50;74.60;;;;;;5018439;28;20038;-64
2020/12/09 10:31:40;;;;;;;61.47;30.63;;;5.50;74.90;;;;;;5010090;28;20121;-64
2020/12/09 10:34:10;;;;;;;58.50;30.63;;;5.50;74.90;;;;;;5016613;28;21353;-65
2020/12/09 10:36:37;;;;;;;74.73;31.30;;;5.40;74.90;;;;;;5014112;28;20026;-64
2020/12/09 10:39:04;;;;;;;60.93;28.53;;;5.30;75.20;;;;;;5015883;28;20041;-64
2020/12/09 10:41:30;;;;;;;78.80;31.40;;;5.30;75.40;;;;;;5023700;28;20030;-65
2020/12/09 10:43:56;;;;;;;67.63;31.20;;;5.20;75.30;;;;;;5013151;28;20034;-64
2020/12/09 10:46:30;;;;;;;102.57;36.33;;;5.20;75.50;;;;;;5021564;28;20049;-64
2020/12/09 10:48:55;;;;;;;61.70;31.80;;;5.00;75.80;;;;;;5021956;28;20464;-64
2020/12/09 10:51:21;;;;;;;63.80;32.87;;;5.00;76.10;;;;;;5014425;28;20092;-64
2020/12/09 10:53:47;;;;;;;64.90;30.43;;;5.10;76.30;;;;;;5023761;28;20025;-64
2020/12/09 10:56:12;;;;;;;73.27;32.33;;;5.20;76.20;;;;;;5013246;28;20037;-64
2020/12/09 10:58:38;;;;;;;66.00;32.20;;;5.20;75.50;;;;;;5010950;28;20392;-64
2020/12/09 11:01:04;;;;;;;61.13;31.80;;;5.20;75.30;;;;;;5029223;28;20053;-64
2020/12/09 11:03:29;;;;;;;85.30;33.93;;;5.20;75.60;;;;;;5014142;28;20042;-64
2020/12/09 11:05:55;;;;;;;63.70;31.10;;;5.20;75.50;;;;;;5017425;28;20464;-65
2020/12/09 11:08:21;;;;;;;63.40;31.10;;;5.30;75.70;;;;;;5009257;28;20383;-64
2020/12/09 11:10:47;;;;;;;59.47;32.47;;;5.30;75.50;;;;;;5016813;28;20052;-64
2020/12/09 11:13:12;;;;;;;60.07;29.27;;;5.40;75.40;;;;;;5017810;28;20109;-64
2020/12/09 11:15:38;;;;;;;60.30;28.37;;;5.50;75.20;;;;;;5021487;28;20172;-64
2020/12/09 11:18:04;;;;;;;63.27;30.73;;;5.60;75.10;;;;;;5024287;28;20034;-64
2020/12/09 11:20:30;;;;;;;65.63;32.07;;;5.70;74.80;;;;;;5027960;28;20084;-65
2020/12/09 11:22:56;;;;;;;67.23;33.73;;;5.70;74.40;;;;;;5013114;28;20050;-65
2020/12/09 11:25:23;;;;;;;94.87;34.70;;;5.60;74.20;;;;;;5019111;28;20053;-65
2020/12/09 11:27:49;;;;;;;66.00;31.20;;;5.40;74.40;;;;;;5029084;28;20112;-65
2020/12/09 11:30:15;;;;;;;144.37;35.70;;;5.30;74.90;;;;;;5021643;28;20056;-65
2020/12/09 11:32:42;;;;;;;71.27;33.50;;;5.10;75.10;;;;;;5022151;28;20057;-65
2020/12/09 11:35:07;;;;;;;63.17;31.27;;;5.20;75.50;;;;;;5016556;28;20029;-65
2020/12/09 11:37:33;;;;;;;62.93;29.50;;;5.20;75.10;;;;;;5024393;28;20471;-65
2020/12/09 11:39:59;;;;;;;64.20;27.27;;;5.10;74.40;;;;;;5026009;28;20383;-65
2020/12/09 11:42:25;;;;;;;56.17;27.77;;;4.90;74.80;;;;;;5022458;28;20033;-65
2020/12/09 11:44:51;;;;;;;63.63;27.23;;;4.80;75.10;;;;;;5011921;28;20040;-65
2020/12/09 11:47:16;;;;;;;61.60;26.67;;;4.80;75.50;;;;;;5020418;28;20033;-65
2020/12/09 11:49:42;;;;;;;78.40;30.53;;;4.80;76.00;;;;;;5026038;28;20101;-65
2020/12/09 11:52:07;;;;;;;70.57;28.57;;;4.80;76.60;;;;;;5029944;28;20080;-65
2020/12/09 11:54:33;;;;;;;71.60;29.80;;;4.70;76.60;;;;;;5016270;28;20219;-65
2020/12/09 11:56:59;;;;;;;79.50;31.00;;;4.70;77.10;;;;;;5018933;28;20034;-65
2020/12/09 11:59:25;;;;;;;102.43;31.30;;;4.70;77.20;;;;;;5011460;28;20472;-65
2020/12/09 12:01:51;;;;;;;68.60;30.83;;;4.70;77.50;;;;;;5027787;28;20029;-64
2020/12/09 12:04:17;;;;;;;74.70;29.63;;;4.70;77.60;;;;;;5024065;28;20036;-65
2020/12/09 12:06:43;;;;;;;67.23;30.37;;;4.70;77.60;;;;;;5027872;28;20033;-65
2020/12/09 12:09:09;;;;;;;69.80;29.53;;;4.70;77.70;;;;;;5013505;28;20053;-65
2020/12/09 12:11:35;;;;;;;77.17;33.60;;;4.70;77.70;;;;;;5023543;28;20369;-64
2020/12/09 12:14:00;;;;;;;77.93;33.87;;;4.70;77.80;;;;;;5027474;28;20029;-64
2020/12/09 12:16:26;;;;;;;82.40;30.50;;;4.70;78.00;;;;;;5025857;28;20045;-65
2020/12/09 12:18:53;;;;;;;80.47;31.67;;;4.70;77.90;;;;;;5025468;28;20367;-65
2020/12/09 12:21:22;;;;;;;72.90;34.00;;;4.70;78.00;;;;;;5014161;28;20149;-65
2020/12/09 12:23:48;;;;;;;97.80;36.53;;;4.70;78.20;;;;;;5021191;28;20029;-64
2020/12/09 12:26:15;;;;;;;87.27;35.67;;;4.80;78.20;;;;;;5008532;28;20065;-64
2020/12/09 12:28:41;;;;;;;82.20;32.37;;;4.90;77.90;;;;;;5027067;28;20394;-64
2020/12/09 12:31:13;;;;;;;89.60;33.57;;;5.10;77.60;;;;;;5019494;28;20033;-65
2020/12/09 12:33:39;;;;;;;83.03;33.10;;;5.20;77.00;;;;;;5021371;28;20041;-65
2020/12/09 12:36:06;;;;;;;86.17;35.57;;;5.30;76.50;;;;;;5026377;28;20038;-65
2020/12/09 12:38:32;;;;;;;83.37;35.90;;;5.30;76.50;;;;;;5015243;28;20066;-66
2020/12/09 12:40:58;;;;;;;83.10;35.20;;;5.30;76.20;;;;;;5024915;28;20037;-65
2020/12/09 12:43:24;;;;;;;87.50;33.40;;;5.20;76.70;;;;;;5011186;28;20030;-65